sensor_id;sensor_type;location;lat;lon;timestamp;temperature;humidity
18974;DHT22;9621;48.690;9.466;2022-10-31T00:00:06;6.20;99.90
18974;DHT22;9621;48.690;9.466;2022-10-31T00:02:34;6.10;99.90
18974;DHT22;9621;48.690;9.466;2022-10-31T00:05:01;6.10;99.90
18974;DHT22;9621;48.690;9.466;2022-10-31T00:07:30;6.10;99.90
18974;DHT22;9621;48.690;9.466;2022-10-31T00:09:57;6.10;99.90
18974;DHT22;9621;48.690;9.466;2022-10-31T00:12:23;6.10;99.90
18974;DHT22;9621;48.690;9.466;2022-10-31T00:14:50;6.10;99.90
18974;DHT22;9621;48.690;9.466;2022-10-31T00:17:17;6.10;99.90
18974;DHT22;9621;48.690;9.466;2022-10-31T00:19:44;6.10;99.90
18974;DHT22;9621;48.690;9.466;2022-10-31T00:22:11;6.00;99.90
18974;DHT22;9621;48.690;9.466;2022-10-31T00:24:40;6.00;99.90
18974;DHT22;9621;48.690;9.466;2022-10-31T00:27:06;6.00;99.90
18974;DHT22;9621;48.690;9.466;2022-10-31T00:29:34;6.00;99.90
18974;DHT22;9621;48.690;9.466;2022-10-31T00:32:00;5.90;99.90
18974;DHT22;9621;48.690;9.466;2022-10-31T00:34:27;6.10;99.90
18974;DHT22;9621;48.690;9.466;2022-10-31T00:36:54;5.90;99.90
18974;DHT22;9621;48.690;9.466;2022-10-31T00:39:21;6.00;99.90
18974;DHT22;9621;48.690;9.466;2022-10-31T00:41:49;5.80;99.90
18974;DHT22;9621;48.690;9.466;2022-10-31T00:44:16;5.80;99.90
18974;DHT22;9621;48.690;9.466;2022-10-31T00:46:43;5.80;99.90
18974;DHT22;9621;48.690;9.466;2022-10-31T00:49:10;5.80;99.90
18974;DHT22;9621;48.690;9.466;2022-10-31T00:51:37;5.70;99.90
18974;DHT22;9621;48.690;9.466;2022-10-31T00:54:05;5.70;99.90
18974;DHT22;9621;48.690;9.466;2022-10-31T00:56:31;5.70;99.90
18974;DHT22;9621;48.690;9.466;2022-10-31T00:59:00;5.60;99.90
18974;DHT22;9621;48.690;9.466;2022-10-31T01:01:27;5.70;99.90
18974;DHT22;9621;48.690;9.466;2022-10-31T01:03:54;5.60;99.90
18974;DHT22;9621;48.690;9.466;2022-10-31T01:06:21;5.60;99.90
18974;DHT22;9621;48.690;9.466;2022-10-31T01:08:48;5.60;99.90
18974;DHT22;9621;48.690;9.466;2022-10-31T01:11:16;5.60;99.90
18974;DHT22;9621;48.690;9.466;2022-10-31T01:13:44;5.60;99.90
18974;DHT22;9621;48.690;9.466;2022-10-31T01:16:14;5.60;99.90
18974;DHT22;9621;48.690;9.466;2022-10-31T01:18:41;5.70;99.90
18974;DHT22;9621;48.690;9.466;2022-10-31T01:21:10;5.60;99.90
18974;DHT22;9621;48.690;9.466;2022-10-31T01:23:37;5.60;99.90
18974;DHT22;9621;48.690;9.466;2022-10-31T01:26:07;5.50;99.90
18974;DHT22;9621;48.690;9.466;2022-10-31T01:28:35;5.50;99.90
18974;DHT22;9621;48.690;9.466;2022-10-31T01:31:03;5.50;99.90
18974;DHT22;9621;48.690;9.466;2022-10-31T01:33:32;5.50;99.90
18974;DHT22;9621;48.690;9.466;2022-10-31T01:35:59;5.40;99.90
18974;DHT22;9621;48.690;9.466;2022-10-31T01:38:27;5.40;99.90
18974;DHT22;9621;48.690;9.466;2022-10-31T01:40:54;5.40;99.90
18974;DHT22;9621;48.690;9.466;2022-10-31T01:43:21;5.30;99.90
18974;DHT22;9621;48.690;9.466;2022-10-31T01:45:51;5.40;99.90
18974;DHT22;9621;48.690;9.466;2022-10-31T01:48:24;5.30;99.90
18974;DHT22;9621;48.690;9.466;2022-10-31T01:50:55;5.40;99.90
18974;DHT22;9621;48.690;9.466;2022-10-31T01:53:22;5.30;99.90
18974;DHT22;9621;48.690;9.466;2022-10-31T01:55:50;5.20;99.90
18974;DHT22;9621;48.690;9.466;2022-10-31T01:58:20;5.20;99.90
18974;DHT22;9621;48.690;9.466;2022-10-31T02:00:56;5.10;99.90
18974;DHT22;9621;48.690;9.466;2022-10-31T02:03:25;5.20;99.90
18974;DHT22;9621;48.690;9.466;2022-10-31T02:05:55;5.20;99.90
18974;DHT22;9621;48.690;9.466;2022-10-31T02:08:26;5.20;99.90
18974;DHT22;9621;48.690;9.466;2022-10-31T02:10:54;5.20;99.90
18974;DHT22;9621;48.690;9.466;2022-10-31T02:13:22;5.50;99.90
18974;DHT22;9621;48.690;9.466;2022-10-31T02:15:53;5.20;99.90
18974;DHT22;9621;48.690;9.466;2022-10-31T02:18:20;5.20;99.90
18974;DHT22;9621;48.690;9.466;2022-10-31T02:20:57;5.20;99.90
18974;DHT22;9621;48.690;9.466;2022-10-31T02:23:58;5.20;99.90
18974;DHT22;9621;48.690;9.466;2022-10-31T02:26:49;5.20;99.90
18974;DHT22;9621;48.690;9.466;2022-10-31T02:29:44;5.20;99.90
18974;DHT22;9621;48.690;9.466;2022-10-31T02:32:20;5.20;99.90
18974;DHT22;9621;48.690;9.466;2022-10-31T02:34:54;5.20;99.90
18974;DHT22;9621;48.690;9.466;2022-10-31T02:37:27;5.30;99.90
18974;DHT22;9621;48.690;9.466;2022-10-31T02:40:01;5.30;99.90
18974;DHT22;9621;48.690;9.466;2022-10-31T02:42:35;5.30;99.90
18974;DHT22;9621;48.690;9.466;2022-10-31T02:45:27;5.20;99.90
18974;DHT22;9621;48.690;9.466;2022-10-31T02:47:59;5.30;99.90
18974;DHT22;9621;48.690;9.466;2022-10-31T02:50:29;5.30;99.90
18974;DHT22;9621;48.690;9.466;2022-10-31T02:52:57;5.20;99.90
18974;DHT22;9621;48.690;9.466;2022-10-31T02:55:54;5.30;99.90
18974;DHT22;9621;48.690;9.466;2022-10-31T02:58:24;5.20;99.90
18974;DHT22;9621;48.690;9.466;2022-10-31T03:01:07;5.20;99.90
18974;DHT22;9621;48.690;9.466;2022-10-31T03:03:44;5.20;99.90
18974;DHT22;9621;48.690;9.466;2022-10-31T03:06:22;5.20;99.90
18974;DHT22;9621;48.690;9.466;2022-10-31T03:08:58;5.20;99.90
18974;DHT22;9621;48.690;9.466;2022-10-31T03:11:31;5.10;99.90
18974;DHT22;9621;48.690;9.466;2022-10-31T03:14:04;5.10;99.90
18974;DHT22;9621;48.690;9.466;2022-10-31T03:16:41;5.10;99.90
18974;DHT22;9621;48.690;9.466;2022-10-31T03:19:13;5.10;99.90
18974;DHT22;9621;48.690;9.466;2022-10-31T03:21:44;5.10;99.90
18974;DHT22;9621;48.690;9.466;2022-10-31T03:24:13;5.00;99.90
18974;DHT22;9621;48.690;9.466;2022-10-31T03:26:44;5.00;99.90
18974;DHT22;9621;48.690;9.466;2022-10-31T03:29:16;5.00;99.90
18974;DHT22;9621;48.690;9.466;2022-10-31T03:31:47;5.00;99.90
18974;DHT22;9621;48.690;9.466;2022-10-31T03:34:17;4.90;99.90
18974;DHT22;9621;48.690;9.466;2022-10-31T03:36:47;5.00;99.90
18974;DHT22;9621;48.690;9.466;2022-10-31T03:39:18;5.00;99.90
18974;DHT22;9621;48.690;9.466;2022-10-31T03:41:50;4.90;99.90
18974;DHT22;9621;48.690;9.466;2022-10-31T03:44:21;4.90;99.90
18974;DHT22;9621;48.690;9.466;2022-10-31T03:46:52;4.80;99.90
18974;DHT22;9621;48.690;9.466;2022-10-31T03:49:19;4.80;99.90
18974;DHT22;9621;48.690;9.466;2022-10-31T03:51:50;4.80;99.90
18974;DHT22;9621;48.690;9.466;2022-10-31T03:54:24;4.60;99.90
18974;DHT22;9621;48.690;9.466;2022-10-31T03:56:54;4.70;99.90
18974;DHT22;9621;48.690;9.466;2022-10-31T03:59:26;4.70;99.90
18974;DHT22;9621;48.690;9.466;2022-10-31T04:02:00;4.70;99.90
18974;DHT22;9621;48.690;9.466;2022-10-31T04:04:28;4.60;99.90
18974;DHT22;9621;48.690;9.466;2022-10-31T04:06:56;4.70;99.90
18974;DHT22;9621;48.690;9.466;2022-10-31T04:09:26;4.60;99.90
18974;DHT22;9621;48.690;9.466;2022-10-31T04:11:56;4.60;99.90
18974;DHT22;9621;48.690;9.466;2022-10-31T04:14:25;4.60;99.90
18974;DHT22;9621;48.690;9.466;2022-10-31T04:16:54;4.50;99.90
18974;DHT22;9621;48.690;9.466;2022-10-31T04:19:22;4.50;99.90
18974;DHT22;9621;48.690;9.466;2022-10-31T04:21:49;4.50;99.90
18974;DHT22;9621;48.690;9.466;2022-10-31T04:24:16;4.60;99.90
18974;DHT22;9621;48.690;9.466;2022-10-31T04:26:43;4.60;99.90
18974;DHT22;9621;48.690;9.466;2022-10-31T04:29:10;4.60;99.90
18974;DHT22;9621;48.690;9.466;2022-10-31T04:31:37;4.60;99.90
18974;DHT22;9621;48.690;9.466;2022-10-31T04:34:04;4.50;99.90
18974;DHT22;9621;48.690;9.466;2022-10-31T04:36:32;4.70;99.90
18974;DHT22;9621;48.690;9.466;2022-10-31T04:38:59;4.70;99.90
18974;DHT22;9621;48.690;9.466;2022-10-31T04:41:26;4.70;99.90
18974;DHT22;9621;48.690;9.466;2022-10-31T04:43:54;4.80;99.90
18974;DHT22;9621;48.690;9.466;2022-10-31T04:46:21;4.80;99.90
18974;DHT22;9621;48.690;9.466;2022-10-31T04:48:48;4.80;99.90
18974;DHT22;9621;48.690;9.466;2022-10-31T04:51:15;4.80;99.90
18974;DHT22;9621;48.690;9.466;2022-10-31T04:53:43;4.90;99.90
18974;DHT22;9621;48.690;9.466;2022-10-31T04:56:10;4.90;99.90
18974;DHT22;9621;48.690;9.466;2022-10-31T04:58:37;4.90;99.90
18974;DHT22;9621;48.690;9.466;2022-10-31T05:01:04;4.90;99.90
18974;DHT22;9621;48.690;9.466;2022-10-31T05:03:31;4.90;99.90
18974;DHT22;9621;48.690;9.466;2022-10-31T05:05:58;4.90;99.90
18974;DHT22;9621;48.690;9.466;2022-10-31T05:08:24;4.90;99.90
18974;DHT22;9621;48.690;9.466;2022-10-31T05:10:53;4.90;99.90
18974;DHT22;9621;48.690;9.466;2022-10-31T05:13:19;4.90;99.90
18974;DHT22;9621;48.690;9.466;2022-10-31T05:15:46;4.90;99.90
18974;DHT22;9621;48.690;9.466;2022-10-31T05:18:13;4.90;99.90
18974;DHT22;9621;48.690;9.466;2022-10-31T05:20:40;5.00;99.90
18974;DHT22;9621;48.690;9.466;2022-10-31T05:23:07;5.00;99.90
18974;DHT22;9621;48.690;9.466;2022-10-31T05:25:34;5.00;99.90
18974;DHT22;9621;48.690;9.466;2022-10-31T05:28:02;5.00;99.90
18974;DHT22;9621;48.690;9.466;2022-10-31T05:30:30;5.10;99.90
18974;DHT22;9621;48.690;9.466;2022-10-31T05:32:58;5.10;99.90
18974;DHT22;9621;48.690;9.466;2022-10-31T05:35:27;5.10;99.90
18974;DHT22;9621;48.690;9.466;2022-10-31T05:37:55;5.10;99.90
18974;DHT22;9621;48.690;9.466;2022-10-31T05:40:23;5.10;99.90
18974;DHT22;9621;48.690;9.466;2022-10-31T05:42:51;5.20;99.90
18974;DHT22;9621;48.690;9.466;2022-10-31T05:45:20;5.10;99.90
18974;DHT22;9621;48.690;9.466;2022-10-31T05:47:51;5.10;99.90
18974;DHT22;9621;48.690;9.466;2022-10-31T05:50:19;5.00;99.90
18974;DHT22;9621;48.690;9.466;2022-10-31T05:52:46;5.10;99.90
18974;DHT22;9621;48.690;9.466;2022-10-31T05:55:12;5.10;99.90
18974;DHT22;9621;48.690;9.466;2022-10-31T05:57:39;5.00;99.90
18974;DHT22;9621;48.690;9.466;2022-10-31T06:00:08;5.10;99.90
18974;DHT22;9621;48.690;9.466;2022-10-31T06:02:36;5.10;99.90
18974;DHT22;9621;48.690;9.466;2022-10-31T06:05:03;5.10;99.90
18974;DHT22;9621;48.690;9.466;2022-10-31T06:07:34;5.10;99.90
18974;DHT22;9621;48.690;9.466;2022-10-31T06:10:02;5.10;99.90
18974;DHT22;9621;48.690;9.466;2022-10-31T06:12:30;5.10;99.90
18974;DHT22;9621;48.690;9.466;2022-10-31T06:14:56;5.20;99.90
18974;DHT22;9621;48.690;9.466;2022-10-31T06:17:24;5.10;99.90
18974;DHT22;9621;48.690;9.466;2022-10-31T06:19:52;5.20;99.90
18974;DHT22;9621;48.690;9.466;2022-10-31T06:22:19;5.20;99.90
18974;DHT22;9621;48.690;9.466;2022-10-31T06:24:46;5.30;99.90
18974;DHT22;9621;48.690;9.466;2022-10-31T06:27:13;5.30;99.90
18974;DHT22;9621;48.690;9.466;2022-10-31T06:29:39;5.30;99.90
18974;DHT22;9621;48.690;9.466;2022-10-31T06:32:09;5.30;99.90
18974;DHT22;9621;48.690;9.466;2022-10-31T06:34:37;5.30;99.90
18974;DHT22;9621;48.690;9.466;2022-10-31T06:37:06;5.30;99.90
18974;DHT22;9621;48.690;9.466;2022-10-31T06:39:34;5.30;99.90
18974;DHT22;9621;48.690;9.466;2022-10-31T06:42:01;5.30;99.90
18974;DHT22;9621;48.690;9.466;2022-10-31T06:44:28;5.40;99.90
18974;DHT22;9621;48.690;9.466;2022-10-31T06:46:55;5.50;99.90
18974;DHT22;9621;48.690;9.466;2022-10-31T06:49:22;5.50;99.90
18974;DHT22;9621;48.690;9.466;2022-10-31T06:51:50;5.60;99.90
18974;DHT22;9621;48.690;9.466;2022-10-31T06:54:18;5.70;99.90
18974;DHT22;9621;48.690;9.466;2022-10-31T06:56:46;5.70;99.90
18974;DHT22;9621;48.690;9.466;2022-10-31T06:59:13;5.80;99.90
18974;DHT22;9621;48.690;9.466;2022-10-31T07:01:40;5.90;99.90
18974;DHT22;9621;48.690;9.466;2022-10-31T07:04:10;5.90;99.90
18974;DHT22;9621;48.690;9.466;2022-10-31T07:06:37;6.00;99.90
18974;DHT22;9621;48.690;9.466;2022-10-31T07:09:04;6.10;99.90
18974;DHT22;9621;48.690;9.466;2022-10-31T07:11:33;6.20;99.90
18974;DHT22;9621;48.690;9.466;2022-10-31T07:14:00;6.20;99.90
18974;DHT22;9621;48.690;9.466;2022-10-31T07:16:27;6.30;99.90
18974;DHT22;9621;48.690;9.466;2022-10-31T07:18:56;6.50;99.90
18974;DHT22;9621;48.690;9.466;2022-10-31T07:21:23;6.50;99.90
18974;DHT22;9621;48.690;9.466;2022-10-31T07:23:49;6.60;99.90
18974;DHT22;9621;48.690;9.466;2022-10-31T07:26:16;6.70;99.90
18974;DHT22;9621;48.690;9.466;2022-10-31T07:28:45;6.80;99.90
18974;DHT22;9621;48.690;9.466;2022-10-31T07:31:12;6.90;99.90
18974;DHT22;9621;48.690;9.466;2022-10-31T07:33:39;7.10;99.90
18974;DHT22;9621;48.690;9.466;2022-10-31T07:36:06;7.30;99.90
18974;DHT22;9621;48.690;9.466;2022-10-31T07:38:33;7.40;99.90
18974;DHT22;9621;48.690;9.466;2022-10-31T07:41:00;7.60;99.90
18974;DHT22;9621;48.690;9.466;2022-10-31T07:43:27;7.80;99.90
18974;DHT22;9621;48.690;9.466;2022-10-31T07:45:55;8.00;99.90
18974;DHT22;9621;48.690;9.466;2022-10-31T07:48:22;8.20;99.90
18974;DHT22;9621;48.690;9.466;2022-10-31T07:50:50;8.40;99.90
18974;DHT22;9621;48.690;9.466;2022-10-31T07:53:17;8.60;99.90
18974;DHT22;9621;48.690;9.466;2022-10-31T07:55:44;8.70;99.90
18974;DHT22;9621;48.690;9.466;2022-10-31T07:58:13;8.80;99.90
18974;DHT22;9621;48.690;9.466;2022-10-31T08:00:41;8.90;99.90
18974;DHT22;9621;48.690;9.466;2022-10-31T08:03:12;9.00;99.90
18974;DHT22;9621;48.690;9.466;2022-10-31T08:05:40;9.10;99.90
18974;DHT22;9621;48.690;9.466;2022-10-31T08:08:07;9.20;99.90
18974;DHT22;9621;48.690;9.466;2022-10-31T08:10:35;9.30;99.90
18974;DHT22;9621;48.690;9.466;2022-10-31T08:13:05;9.40;99.90
18974;DHT22;9621;48.690;9.466;2022-10-31T08:15:32;9.40;99.90
18974;DHT22;9621;48.690;9.466;2022-10-31T08:18:03;9.40;99.90
18974;DHT22;9621;48.690;9.466;2022-10-31T08:20:31;9.40;99.90
18974;DHT22;9621;48.690;9.466;2022-10-31T08:22:59;9.50;99.90
18974;DHT22;9621;48.690;9.466;2022-10-31T08:25:28;9.50;99.90
18974;DHT22;9621;48.690;9.466;2022-10-31T08:27:56;9.60;99.90
18974;DHT22;9621;48.690;9.466;2022-10-31T08:30:26;9.70;99.90
18974;DHT22;9621;48.690;9.466;2022-10-31T08:33:01;9.90;99.90
18974;DHT22;9621;48.690;9.466;2022-10-31T08:35:28;10.00;99.90
18974;DHT22;9621;48.690;9.466;2022-10-31T08:37:57;10.30;99.90
18974;DHT22;9621;48.690;9.466;2022-10-31T08:40:25;10.40;99.90
18974;DHT22;9621;48.690;9.466;2022-10-31T08:42:56;10.60;99.90
18974;DHT22;9621;48.690;9.466;2022-10-31T08:45:24;10.80;99.90
18974;DHT22;9621;48.690;9.466;2022-10-31T08:47:51;11.00;99.90
18974;DHT22;9621;48.690;9.466;2022-10-31T08:50:18;11.10;99.90
18974;DHT22;9621;48.690;9.466;2022-10-31T08:52:45;11.30;99.90
18974;DHT22;9621;48.690;9.466;2022-10-31T08:55:14;11.50;99.90
18974;DHT22;9621;48.690;9.466;2022-10-31T08:57:41;11.70;99.90
18974;DHT22;9621;48.690;9.466;2022-10-31T09:00:08;11.80;99.90
18974;DHT22;9621;48.690;9.466;2022-10-31T09:02:35;12.00;99.90
18974;DHT22;9621;48.690;9.466;2022-10-31T09:05:04;12.20;99.90
18974;DHT22;9621;48.690;9.466;2022-10-31T09:07:31;12.40;99.90
18974;DHT22;9621;48.690;9.466;2022-10-31T09:09:58;12.50;99.90
18974;DHT22;9621;48.690;9.466;2022-10-31T09:12:26;12.60;99.90
18974;DHT22;9621;48.690;9.466;2022-10-31T09:14:53;12.80;99.90
18974;DHT22;9621;48.690;9.466;2022-10-31T09:17:20;13.00;99.90
18974;DHT22;9621;48.690;9.466;2022-10-31T09:19:47;13.10;99.90
18974;DHT22;9621;48.690;9.466;2022-10-31T09:22:14;13.20;99.90
18974;DHT22;9621;48.690;9.466;2022-10-31T09:24:41;13.40;99.90
18974;DHT22;9621;48.690;9.466;2022-10-31T09:27:08;13.50;99.90
18974;DHT22;9621;48.690;9.466;2022-10-31T09:29:36;13.70;99.90
18974;DHT22;9621;48.690;9.466;2022-10-31T09:32:03;13.90;99.90
18974;DHT22;9621;48.690;9.466;2022-10-31T09:34:30;14.00;99.90
18974;DHT22;9621;48.690;9.466;2022-10-31T09:36:57;14.30;99.90
18974;DHT22;9621;48.690;9.466;2022-10-31T09:39:24;14.40;99.90
18974;DHT22;9621;48.690;9.466;2022-10-31T09:42:27;14.70;99.90
18974;DHT22;9621;48.690;9.466;2022-10-31T09:45:06;15.00;99.90
18974;DHT22;9621;48.690;9.466;2022-10-31T09:47:44;15.20;99.90
18974;DHT22;9621;48.690;9.466;2022-10-31T09:50:15;15.50;99.90
18974;DHT22;9621;48.690;9.466;2022-10-31T09:52:50;15.70;99.90
18974;DHT22;9621;48.690;9.466;2022-10-31T09:55:23;15.90;99.90
18974;DHT22;9621;48.690;9.466;2022-10-31T09:57:54;16.10;99.90
18974;DHT22;9621;48.690;9.466;2022-10-31T10:00:22;16.30;99.90
18974;DHT22;9621;48.690;9.466;2022-10-31T10:02:53;16.40;99.90
18974;DHT22;9621;48.690;9.466;2022-10-31T10:05:29;16.60;99.90
18974;DHT22;9621;48.690;9.466;2022-10-31T10:08:02;16.70;99.90
18974;DHT22;9621;48.690;9.466;2022-10-31T10:10:39;16.80;99.90
18974;DHT22;9621;48.690;9.466;2022-10-31T10:13:29;16.90;99.90
18974;DHT22;9621;48.690;9.466;2022-10-31T10:16:12;17.00;99.90
18974;DHT22;9621;48.690;9.466;2022-10-31T10:18:52;17.00;99.90
18974;DHT22;9621;48.690;9.466;2022-10-31T10:21:29;17.10;99.90
18974;DHT22;9621;48.690;9.466;2022-10-31T10:24:08;17.10;99.90
18974;DHT22;9621;48.690;9.466;2022-10-31T10:26:40;17.10;99.90
18974;DHT22;9621;48.690;9.466;2022-10-31T10:29:21;17.20;99.90
18974;DHT22;9621;48.690;9.466;2022-10-31T10:31:52;17.10;99.90
18974;DHT22;9621;48.690;9.466;2022-10-31T10:34:24;17.20;99.90
18974;DHT22;9621;48.690;9.466;2022-10-31T10:36:57;17.30;99.90
18974;DHT22;9621;48.690;9.466;2022-10-31T10:39:30;17.50;99.90
18974;DHT22;9621;48.690;9.466;2022-10-31T10:41:59;17.60;99.90
18974;DHT22;9621;48.690;9.466;2022-10-31T10:44:47;17.70;99.90
18974;DHT22;9621;48.690;9.466;2022-10-31T10:47:38;17.80;99.90
18974;DHT22;9621;48.690;9.466;2022-10-31T10:50:10;17.90;99.90
18974;DHT22;9621;48.690;9.466;2022-10-31T10:52:47;18.00;99.90
18974;DHT22;9621;48.690;9.466;2022-10-31T10:55:23;18.10;99.90
18974;DHT22;9621;48.690;9.466;2022-10-31T10:57:56;18.20;99.90
18974;DHT22;9621;48.690;9.466;2022-10-31T11:00:26;18.20;99.90
18974;DHT22;9621;48.690;9.466;2022-10-31T11:02:55;18.20;99.90
18974;DHT22;9621;48.690;9.466;2022-10-31T11:05:26;18.20;99.90
18974;DHT22;9621;48.690;9.466;2022-10-31T11:07:54;18.10;99.70
18974;DHT22;9621;48.690;9.466;2022-10-31T11:10:22;18.00;99.90
18974;DHT22;9621;48.690;9.466;2022-10-31T11:13:04;17.90;99.90
18974;DHT22;9621;48.690;9.466;2022-10-31T11:15:35;17.80;99.40
18974;DHT22;9621;48.690;9.466;2022-10-31T11:18:05;17.80;99.90
18974;DHT22;9621;48.690;9.466;2022-10-31T11:20:34;17.80;99.90
18974;DHT22;9621;48.690;9.466;2022-10-31T11:23:04;17.90;99.90
18974;DHT22;9621;48.690;9.466;2022-10-31T11:25:32;17.90;99.90
18974;DHT22;9621;48.690;9.466;2022-10-31T11:27:59;18.00;99.90
18974;DHT22;9621;48.690;9.466;2022-10-31T11:30:27;18.00;99.90
18974;DHT22;9621;48.690;9.466;2022-10-31T11:32:54;18.10;99.90
18974;DHT22;9621;48.690;9.466;2022-10-31T11:35:24;18.30;99.90
18974;DHT22;9621;48.690;9.466;2022-10-31T11:37:53;18.50;99.90
18974;DHT22;9621;48.690;9.466;2022-10-31T11:40:25;18.60;99.90
18974;DHT22;9621;48.690;9.466;2022-10-31T11:42:55;18.80;99.90
18974;DHT22;9621;48.690;9.466;2022-10-31T11:45:29;19.00;99.90
18974;DHT22;9621;48.690;9.466;2022-10-31T11:47:58;19.40;98.70
18974;DHT22;9621;48.690;9.466;2022-10-31T11:50:33;19.40;99.40
18974;DHT22;9621;48.690;9.466;2022-10-31T11:53:02;19.50;97.90
18974;DHT22;9621;48.690;9.466;2022-10-31T11:55:32;19.70;98.50
18974;DHT22;9621;48.690;9.466;2022-10-31T11:58:00;19.80;97.80
18974;DHT22;9621;48.690;9.466;2022-10-31T12:00:28;19.20;98.00
18974;DHT22;9621;48.690;9.466;2022-10-31T12:03:12;20.20;97.50
18974;DHT22;9621;48.690;9.466;2022-10-31T12:05:44;20.50;97.20
18974;DHT22;9621;48.690;9.466;2022-10-31T12:08:15;20.50;97.30
18974;DHT22;9621;48.690;9.466;2022-10-31T12:10:49;20.80;97.60
18974;DHT22;9621;48.690;9.466;2022-10-31T12:13:32;21.20;96.50
18974;DHT22;9621;48.690;9.466;2022-10-31T12:16:06;21.50;95.50
18974;DHT22;9621;48.690;9.466;2022-10-31T12:18:48;21.80;96.00
18974;DHT22;9621;48.690;9.466;2022-10-31T12:21:42;22.10;95.00
18974;DHT22;9621;48.690;9.466;2022-10-31T12:24:19;22.40;94.50
18974;DHT22;9621;48.690;9.466;2022-10-31T12:26:57;22.70;94.40
18974;DHT22;9621;48.690;9.466;2022-10-31T12:29:37;23.00;93.80
18974;DHT22;9621;48.690;9.466;2022-10-31T12:32:24;23.40;93.20
18974;DHT22;9621;48.690;9.466;2022-10-31T12:35:17;23.90;95.10
18974;DHT22;9621;48.690;9.466;2022-10-31T12:37:57;23.90;91.00
18974;DHT22;9621;48.690;9.466;2022-10-31T12:40:40;24.00;89.90
18974;DHT22;9621;48.690;9.466;2022-10-31T12:43:20;23.60;91.00
18974;DHT22;9621;48.690;9.466;2022-10-31T12:45:53;23.60;87.00
18974;DHT22;9621;48.690;9.466;2022-10-31T12:51:28;22.80;84.80
18974;DHT22;9621;48.690;9.466;2022-10-31T12:54:16;22.00;85.00
18974;DHT22;9621;48.690;9.466;2022-10-31T12:56:53;21.80;87.60
18974;DHT22;9621;48.690;9.466;2022-10-31T12:59:28;21.20;87.30
18974;DHT22;9621;48.690;9.466;2022-10-31T13:02:00;21.20;85.60
18974;DHT22;9621;48.690;9.466;2022-10-31T13:04:36;20.80;88.50
18974;DHT22;9621;48.690;9.466;2022-10-31T13:07:10;20.50;87.60
18974;DHT22;9621;48.690;9.466;2022-10-31T13:09:42;20.40;89.00
18974;DHT22;9621;48.690;9.466;2022-10-31T13:12:13;20.10;89.70
18974;DHT22;9621;48.690;9.466;2022-10-31T13:14:44;19.90;90.10
18974;DHT22;9621;48.690;9.466;2022-10-31T13:17:18;19.80;89.70
18974;DHT22;9621;48.690;9.466;2022-10-31T13:19:48;19.70;90.50
18974;DHT22;9621;48.690;9.466;2022-10-31T13:22:20;19.50;90.90
18974;DHT22;9621;48.690;9.466;2022-10-31T13:24:53;19.40;90.80
18974;DHT22;9621;48.690;9.466;2022-10-31T13:27:24;19.30;91.20
18974;DHT22;9621;48.690;9.466;2022-10-31T13:29:59;19.20;91.70
18974;DHT22;9621;48.690;9.466;2022-10-31T13:32:30;19.10;91.90
18974;DHT22;9621;48.690;9.466;2022-10-31T13:35:03;19.00;92.30
18974;DHT22;9621;48.690;9.466;2022-10-31T13:37:35;18.90;92.50
18974;DHT22;9621;48.690;9.466;2022-10-31T13:40:13;18.80;92.70
18974;DHT22;9621;48.690;9.466;2022-10-31T13:42:55;18.70;92.60
18974;DHT22;9621;48.690;9.466;2022-10-31T13:45:25;18.70;92.70
18974;DHT22;9621;48.690;9.466;2022-10-31T13:47:56;18.50;92.90
18974;DHT22;9621;48.690;9.466;2022-10-31T13:50:26;18.40;92.90
18974;DHT22;9621;48.690;9.466;2022-10-31T13:53:10;18.40;93.30
18974;DHT22;9621;48.690;9.466;2022-10-31T13:55:42;18.30;93.30
18974;DHT22;9621;48.690;9.466;2022-10-31T13:58:24;18.20;93.60
18974;DHT22;9621;48.690;9.466;2022-10-31T14:01:06;18.30;94.00
18974;DHT22;9621;48.690;9.466;2022-10-31T14:03:39;18.30;94.10
18974;DHT22;9621;48.690;9.466;2022-10-31T14:06:08;18.30;94.00
18974;DHT22;9621;48.690;9.466;2022-10-31T14:08:40;18.40;94.60
18974;DHT22;9621;48.690;9.466;2022-10-31T14:11:21;18.40;94.00
18974;DHT22;9621;48.690;9.466;2022-10-31T14:13:49;18.50;94.20
18974;DHT22;9621;48.690;9.466;2022-10-31T14:16:20;18.50;94.20
18974;DHT22;9621;48.690;9.466;2022-10-31T14:18:50;18.50;93.70
18974;DHT22;9621;48.690;9.466;2022-10-31T14:21:28;18.40;93.50
18974;DHT22;9621;48.690;9.466;2022-10-31T14:23:56;18.30;93.10
18974;DHT22;9621;48.690;9.466;2022-10-31T14:26:40;18.20;93.10
18974;DHT22;9621;48.690;9.466;2022-10-31T14:29:26;18.00;93.30
18974;DHT22;9621;48.690;9.466;2022-10-31T14:32:01;18.00;93.60
18974;DHT22;9621;48.690;9.466;2022-10-31T14:34:34;17.80;93.40
18974;DHT22;9621;48.690;9.466;2022-10-31T14:37:31;17.80;93.70
18974;DHT22;9621;48.690;9.466;2022-10-31T14:40:17;17.70;93.60
18974;DHT22;9621;48.690;9.466;2022-10-31T14:43:08;17.60;93.80
18974;DHT22;9621;48.690;9.466;2022-10-31T14:45:45;17.50;94.00
18974;DHT22;9621;48.690;9.466;2022-10-31T14:51:10;17.30;94.30
18974;DHT22;9621;48.690;9.466;2022-10-31T14:53:46;17.30;94.30
18974;DHT22;9621;48.690;9.466;2022-10-31T14:56:20;17.20;94.20
18974;DHT22;9621;48.690;9.466;2022-10-31T14:58:49;17.00;94.20
18974;DHT22;9621;48.690;9.466;2022-10-31T15:01:21;16.90;94.40
18974;DHT22;9621;48.690;9.466;2022-10-31T15:03:49;16.80;94.60
18974;DHT22;9621;48.690;9.466;2022-10-31T15:06:18;16.70;94.70
18974;DHT22;9621;48.690;9.466;2022-10-31T15:08:46;16.60;95.00
18974;DHT22;9621;48.690;9.466;2022-10-31T15:11:16;16.40;95.20
18974;DHT22;9621;48.690;9.466;2022-10-31T15:13:44;16.30;95.60
18974;DHT22;9621;48.690;9.466;2022-10-31T15:16:14;16.10;95.80
18974;DHT22;9621;48.690;9.466;2022-10-31T15:18:53;16.00;96.10
18974;DHT22;9621;48.690;9.466;2022-10-31T15:21:23;15.80;96.50
18974;DHT22;9621;48.690;9.466;2022-10-31T15:23:53;15.70;96.60
18974;DHT22;9621;48.690;9.466;2022-10-31T15:26:22;15.50;96.90
18974;DHT22;9621;48.690;9.466;2022-10-31T15:28:58;15.40;97.00
18974;DHT22;9621;48.690;9.466;2022-10-31T15:33:55;15.00;97.20
18974;DHT22;9621;48.690;9.466;2022-10-31T15:36:25;14.90;97.90
18974;DHT22;9621;48.690;9.466;2022-10-31T15:38:52;14.80;97.70
18974;DHT22;9621;48.690;9.466;2022-10-31T15:41:31;14.60;97.90
18974;DHT22;9621;48.690;9.466;2022-10-31T15:44:03;14.50;98.50
18974;DHT22;9621;48.690;9.466;2022-10-31T15:46:32;14.30;98.40
18974;DHT22;9621;48.690;9.466;2022-10-31T15:49:00;14.10;98.60
18974;DHT22;9621;48.690;9.466;2022-10-31T15:51:32;13.90;98.80
18974;DHT22;9621;48.690;9.466;2022-10-31T15:54:00;13.80;99.10
18974;DHT22;9621;48.690;9.466;2022-10-31T15:56:29;13.60;98.90
18974;DHT22;9621;48.690;9.466;2022-10-31T15:58:58;13.50;99.40
18974;DHT22;9621;48.690;9.466;2022-10-31T16:01:27;13.30;99.90
18974;DHT22;9621;48.690;9.466;2022-10-31T16:04:02;13.20;99.80
18974;DHT22;9621;48.690;9.466;2022-10-31T16:06:30;13.00;99.90
18974;DHT22;9621;48.690;9.466;2022-10-31T16:08:57;12.90;99.90
18974;DHT22;9621;48.690;9.466;2022-10-31T16:11:30;12.70;99.90
18974;DHT22;9621;48.690;9.466;2022-10-31T16:14:02;12.60;99.90
18974;DHT22;9621;48.690;9.466;2022-10-31T16:16:31;12.40;99.90
18974;DHT22;9621;48.690;9.466;2022-10-31T16:19:01;12.30;99.90
18974;DHT22;9621;48.690;9.466;2022-10-31T16:21:31;12.20;99.90
18974;DHT22;9621;48.690;9.466;2022-10-31T16:24:02;12.00;99.90
18974;DHT22;9621;48.690;9.466;2022-10-31T16:26:31;11.90;99.90